createdAt,value
2018-03-12T00:00:53.843Z,13.50
2018-03-12T00:03:21.496Z,13.73
2018-03-12T00:05:49.174Z,14.93
2018-03-12T00:08:16.808Z,15.40
2018-03-12T00:10:44.456Z,15.00
2018-03-12T00:13:12.153Z,15.60
2018-03-12T00:15:39.806Z,15.57
2018-03-12T00:18:07.588Z,17.33
2018-03-12T00:20:35.264Z,18.10
2018-03-12T00:23:03.722Z,16.90
2018-03-12T00:25:31.408Z,16.60
2018-03-12T00:27:59.908Z,15.10
2018-03-12T00:30:27.593Z,16.17
2018-03-12T00:32:55.259Z,17.90
2018-03-12T00:35:22.915Z,16.83
2018-03-12T00:37:50.546Z,17.80
2018-03-12T00:40:18.258Z,16.90
2018-03-12T00:42:45.916Z,18.37
2018-03-12T00:45:13.550Z,17.00
2018-03-12T00:47:41.213Z,17.40
2018-03-12T00:50:09.672Z,18.40
2018-03-12T00:52:37.295Z,17.93
2018-03-12T00:55:05.775Z,18.07
2018-03-12T00:57:33.440Z,18.30
2018-03-12T01:00:01.867Z,17.70
2018-03-12T01:02:29.528Z,17.20
2018-03-12T01:04:57.953Z,18.57
2018-03-12T01:07:25.620Z,18.63
2018-03-12T01:09:53.311Z,17.97
2018-03-12T01:12:21.004Z,18.67
2018-03-12T01:14:48.643Z,18.30
2018-03-12T01:17:16.321Z,17.80
2018-03-12T01:19:43.998Z,17.33
2018-03-12T01:22:11.627Z,16.67
2018-03-12T01:24:39.308Z,17.17
2018-03-12T01:27:06.960Z,18.63
2018-03-12T01:29:34.596Z,19.07
2018-03-12T01:32:02.257Z,19.80
2018-03-12T01:34:29.913Z,19.13
2018-03-12T01:36:57.529Z,19.20
2018-03-12T01:39:25.220Z,19.47
2018-03-12T01:41:52.879Z,19.00
2018-03-12T01:44:20.524Z,20.20
2018-03-12T01:46:48.202Z,21.17
2018-03-12T01:49:15.852Z,20.70
2018-03-12T01:51:44.264Z,19.93
2018-03-12T01:54:11.920Z,20.67
2018-03-12T01:56:39.642Z,22.00
2018-03-12T01:59:08.034Z,21.27
2018-03-12T02:01:35.699Z,21.10
2018-03-12T02:04:03.400Z,19.73
2018-03-12T02:06:31.032Z,21.90
2018-03-12T02:08:58.687Z,20.70
2018-03-12T02:11:26.531Z,21.97
2018-03-12T02:13:54.216Z,21.70
2018-03-12T02:16:21.860Z,21.20
2018-03-12T02:18:49.543Z,21.07
2018-03-12T02:21:17.185Z,23.10
2018-03-12T02:23:44.862Z,22.17
2018-03-12T02:26:12.575Z,22.60
2018-03-12T02:28:40.211Z,22.43
2018-03-12T02:31:07.878Z,24.80
2018-03-12T02:33:35.546Z,21.77
2018-03-12T02:36:03.181Z,24.53
2018-03-12T02:38:30.844Z,24.00
2018-03-12T02:40:58.485Z,24.73
2018-03-12T02:43:26.120Z,22.67
2018-03-12T02:45:54.548Z,24.17
2018-03-12T02:48:22.329Z,24.00
2018-03-12T02:50:49.944Z,25.20
2018-03-12T02:53:17.592Z,25.07
2018-03-12T02:55:45.292Z,25.13
2018-03-12T02:58:12.928Z,25.73
2018-03-12T03:00:40.602Z,27.20
2018-03-12T03:03:08.261Z,25.53
2018-03-12T03:05:35.886Z,26.50
2018-03-12T03:08:03.572Z,26.10
2018-03-12T03:10:31.229Z,26.27
2018-03-12T03:12:58.871Z,26.20
2018-03-12T03:15:26.541Z,28.07
2018-03-12T03:17:54.219Z,27.00
2018-03-12T03:20:21.855Z,30.00
2018-03-12T03:22:49.526Z,28.00
2018-03-12T03:25:17.237Z,27.77
2018-03-12T03:27:44.869Z,27.43
2018-03-12T03:30:12.714Z,29.33
2018-03-12T03:32:40.380Z,29.30
2018-03-12T03:35:08.065Z,29.90
2018-03-12T03:37:35.736Z,27.80
2018-03-12T03:40:03.475Z,26.20
2018-03-12T03:42:31.143Z,28.40
2018-03-12T03:44:58.839Z,29.93
2018-03-12T03:47:27.321Z,27.87
2018-03-12T03:49:54.975Z,26.53
2018-03-12T03:52:25.468Z,27.03
2018-03-12T03:54:53.152Z,28.07
2018-03-12T03:57:20.813Z,27.70
2018-03-12T03:59:49.298Z,29.67
2018-03-12T04:02:17.764Z,28.60
2018-03-12T04:04:45.414Z,30.37
2018-03-12T04:07:13.087Z,26.73
2018-03-12T04:09:40.769Z,24.20
2018-03-12T04:12:09.184Z,26.37
2018-03-12T04:14:36.869Z,23.07
2018-03-12T04:17:04.585Z,24.97
2018-03-12T04:19:32.240Z,21.27
2018-03-12T04:22:00.702Z,19.60
2018-03-12T04:24:29.158Z,18.40
2018-03-12T04:26:56.825Z,17.63
2018-03-12T04:29:24.491Z,17.83
2018-03-12T04:31:52.165Z,19.13
2018-03-12T04:34:20.617Z,15.87
2018-03-12T04:36:48.284Z,16.30
2018-03-12T04:39:15.947Z,13.93
2018-03-12T04:41:43.596Z,14.90
2018-03-12T04:44:11.296Z,15.20
2018-03-12T04:46:38.974Z,14.40
2018-03-12T04:49:06.609Z,13.93
2018-03-12T04:51:35.050Z,11.80
2018-03-12T04:54:02.785Z,10.60
2018-03-12T04:56:30.465Z,10.93
2018-03-12T04:58:58.140Z,10.87
2018-03-12T05:01:25.800Z,10.50
2018-03-12T05:03:53.441Z,11.87
2018-03-12T05:06:21.141Z,8.57
2018-03-12T05:08:48.826Z,8.50
2018-03-12T05:11:16.474Z,8.70
2018-03-12T05:13:44.901Z,8.30
2018-03-12T05:16:12.628Z,6.37
2018-03-12T05:18:40.276Z,6.60
2018-03-12T05:21:08.727Z,5.67
2018-03-12T05:23:36.409Z,4.93
2018-03-12T05:26:04.858Z,4.97
2018-03-12T05:28:32.617Z,4.87
2018-03-12T05:31:00.370Z,4.70
2018-03-12T05:33:28.054Z,5.20
2018-03-12T05:35:55.712Z,5.47
2018-03-12T05:38:23.397Z,5.00
2018-03-12T05:40:51.091Z,6.20
2018-03-12T05:43:18.776Z,4.80
2018-03-12T05:45:46.431Z,4.87
2018-03-12T05:48:14.125Z,5.80
2018-03-12T05:50:42.568Z,5.20
2018-03-12T05:53:10.283Z,6.43
2018-03-12T05:55:38.720Z,6.13
2018-03-12T05:58:06.366Z,7.20
2018-03-12T06:00:34.115Z,6.47
2018-03-12T06:03:01.760Z,4.80
2018-03-12T06:05:29.456Z,6.40
2018-03-12T06:07:57.134Z,5.73
2018-03-12T06:10:24.784Z,5.37
2018-03-12T06:12:52.433Z,6.30
2018-03-12T06:15:20.131Z,6.80
2018-03-12T06:17:48.587Z,6.40
2018-03-12T06:20:16.276Z,6.50
2018-03-12T06:22:44.721Z,7.00
2018-03-12T06:25:12.362Z,6.23
2018-03-12T06:27:40.035Z,6.13
2018-03-12T06:30:07.735Z,7.20
2018-03-12T06:32:36.210Z,7.00
2018-03-12T06:35:04.708Z,6.23
2018-03-12T06:37:32.393Z,6.10
2018-03-12T06:40:00.046Z,5.37
2018-03-12T06:42:27.715Z,4.97
2018-03-12T06:44:55.418Z,4.90
2018-03-12T06:47:23.116Z,4.17
2018-03-12T06:49:50.772Z,4.03
2018-03-12T06:52:18.472Z,4.37
2018-03-12T06:54:46.168Z,4.10
2018-03-12T06:57:14.680Z,3.70
2018-03-12T06:59:42.359Z,3.53
2018-03-12T07:02:09.989Z,4.20
2018-03-12T07:04:38.418Z,3.63
2018-03-12T07:07:06.076Z,3.90
2018-03-12T07:09:33.700Z,3.57
2018-03-12T07:12:01.359Z,3.97
2018-03-12T07:14:29.086Z,3.60
2018-03-12T07:16:56.756Z,4.73
2018-03-12T07:19:25.578Z,3.50
2018-03-12T07:21:53.290Z,3.33
2018-03-12T07:24:20.907Z,3.90
2018-03-12T07:26:48.568Z,2.83
2018-03-12T07:29:16.253Z,3.47
2018-03-12T07:31:43.891Z,3.00
2018-03-12T07:34:11.596Z,3.37
2018-03-12T07:36:39.288Z,3.17
2018-03-12T07:39:06.928Z,2.83
2018-03-12T07:41:35.376Z,2.47
2018-03-12T07:44:03.100Z,3.03
2018-03-12T07:46:30.800Z,3.00
2018-03-12T07:48:58.493Z,3.13
2018-03-12T07:51:26.933Z,3.77
2018-03-12T07:53:54.574Z,3.47
2018-03-12T07:56:22.244Z,3.60
2018-03-12T07:58:49.933Z,3.90
2018-03-12T08:01:18.428Z,3.63
2018-03-12T08:03:46.120Z,4.63
2018-03-12T08:06:13.855Z,4.90
2018-03-12T08:08:41.477Z,5.30
2018-03-12T08:11:09.239Z,5.47
2018-03-12T08:13:36.878Z,5.07
2018-03-12T08:16:04.590Z,4.90
2018-03-12T08:18:32.330Z,4.60
2018-03-12T08:21:00.031Z,4.23
2018-03-12T08:23:28.470Z,4.60
2018-03-12T08:25:56.167Z,4.80
2018-03-12T08:28:24.603Z,4.67
2018-03-12T08:30:52.302Z,4.00
2018-03-12T08:33:20.753Z,4.33
2018-03-12T08:35:48.425Z,4.30
2018-03-12T08:38:16.912Z,4.67
2018-03-12T08:40:44.626Z,4.63
2018-03-12T08:43:12.289Z,4.80
2018-03-12T08:45:40.001Z,4.43
2018-03-12T08:48:07.676Z,4.30
2018-03-12T08:50:35.359Z,4.10
2018-03-12T08:53:02.999Z,4.40
2018-03-12T08:55:30.732Z,3.67
2018-03-12T08:57:58.413Z,4.30
2018-03-12T09:00:26.853Z,4.20
2018-03-12T09:02:54.540Z,4.47
2018-03-12T09:05:22.988Z,3.90
2018-03-12T09:07:50.664Z,3.80
2018-03-12T09:10:18.375Z,3.93
2018-03-12T09:12:46.078Z,3.10
2018-03-12T09:15:13.744Z,3.03
2018-03-12T09:17:41.437Z,2.83
2018-03-12T09:20:09.913Z,3.20
2018-03-12T09:22:38.312Z,2.63
2018-03-12T09:25:06.052Z,2.90
2018-03-12T09:27:34.534Z,2.77
2018-03-12T09:30:02.256Z,2.30
2018-03-12T09:32:30.024Z,2.37
2018-03-12T09:34:57.712Z,2.70
2018-03-12T09:37:26.135Z,2.33
2018-03-12T09:39:54.323Z,2.33
2018-03-12T09:42:22.008Z,2.13
2018-03-12T09:44:49.703Z,2.23
2018-03-12T09:47:17.397Z,2.93
2018-03-12T09:49:45.064Z,1.97
2018-03-12T09:52:12.695Z,2.17
2018-03-12T09:54:40.402Z,1.90
2018-03-12T09:57:08.134Z,1.70
2018-03-12T09:59:35.844Z,1.67
2018-03-12T10:02:03.539Z,1.50
2018-03-12T10:04:31.208Z,1.60
2018-03-12T10:06:58.900Z,1.47
2018-03-12T10:09:26.574Z,1.43
2018-03-12T10:11:54.268Z,1.50
2018-03-12T10:14:21.968Z,1.60
2018-03-12T10:16:49.664Z,1.20
2018-03-12T10:19:18.160Z,1.30
2018-03-12T10:21:45.841Z,1.50
2018-03-12T10:24:13.555Z,1.40
2018-03-12T10:26:41.254Z,2.00
2018-03-12T10:29:08.999Z,1.83
2018-03-12T10:31:36.705Z,1.50
2018-03-12T10:34:04.450Z,1.50
2018-03-12T10:36:32.109Z,1.90
2018-03-12T10:38:59.830Z,1.30
2018-03-12T10:41:27.556Z,1.77
2018-03-12T10:43:55.232Z,1.43
2018-03-12T10:46:22.885Z,1.30
2018-03-12T10:48:50.848Z,0.90
2018-03-12T10:51:18.530Z,1.20
2018-03-12T10:53:46.992Z,1.10
2018-03-12T10:56:14.687Z,1.13
2018-03-12T10:58:43.125Z,1.33
2018-03-12T11:01:10.871Z,0.97
2018-03-12T11:03:44.604Z,0.70
2018-03-12T11:06:17.993Z,1.10
2018-03-12T11:08:45.698Z,0.93
2018-03-12T11:11:14.260Z,1.00
2018-03-12T11:13:42.707Z,0.90
2018-03-12T11:16:10.423Z,1.00
2018-03-12T11:18:38.140Z,1.17
2018-03-12T11:21:05.887Z,1.13
2018-03-12T11:23:33.575Z,1.47
2018-03-12T11:26:01.239Z,0.90
2018-03-12T11:28:28.983Z,1.50
2018-03-12T11:30:56.639Z,1.50
2018-03-12T11:33:24.298Z,1.30
2018-03-12T11:35:52.821Z,1.13
2018-03-12T11:38:20.511Z,1.70
2018-03-12T11:40:48.162Z,1.10
2018-03-12T11:43:15.885Z,1.47
2018-03-12T11:45:43.591Z,1.27
2018-03-12T11:48:11.292Z,1.47
2018-03-12T11:50:38.975Z,1.50
2018-03-12T11:53:08.212Z,1.70
2018-03-12T11:55:35.852Z,1.77
2018-03-12T11:58:03.532Z,1.90
2018-03-12T12:00:31.297Z,1.93
2018-03-12T12:02:59.001Z,1.83
2018-03-12T12:05:26.731Z,1.70
2018-03-12T12:07:54.474Z,2.13
2018-03-12T12:10:22.180Z,1.60
2018-03-12T12:12:49.900Z,1.80
2018-03-12T12:15:17.629Z,2.03
2018-03-12T12:17:46.136Z,1.80
2018-03-12T12:20:13.960Z,2.20
2018-03-12T12:22:41.639Z,1.83
2018-03-12T12:25:10.047Z,1.87
2018-03-12T12:27:38.669Z,1.90
2018-03-12T12:30:07.072Z,1.90
2018-03-12T12:32:36.657Z,2.13
2018-03-12T12:35:05.176Z,1.90
2018-03-12T12:37:38.490Z,2.13
2018-03-12T12:40:08.686Z,2.20
2018-03-12T12:42:36.375Z,1.67
2018-03-12T12:45:08.133Z,2.60
2018-03-12T12:47:36.857Z,1.47
2018-03-12T12:50:04.582Z,1.60
2018-03-12T12:52:32.320Z,1.27
2018-03-12T12:55:00.123Z,1.70
2018-03-12T12:57:27.910Z,1.57
2018-03-12T13:02:37.677Z,1.30
2018-03-12T13:05:06.218Z,1.67
2018-03-12T13:07:33.904Z,1.77
2018-03-12T13:10:01.642Z,1.53
2018-03-12T13:12:30.151Z,1.50
2018-03-12T13:14:57.859Z,1.70
2018-03-12T13:17:25.528Z,1.67
2018-03-12T13:19:53.197Z,1.80
2018-03-12T13:22:20.892Z,1.47
2018-03-12T13:24:48.552Z,1.63
2018-03-12T13:27:16.265Z,1.20
2018-03-12T13:29:43.952Z,1.70
2018-03-12T13:32:12.628Z,1.80
2018-03-12T13:34:40.343Z,1.67
2018-03-12T13:37:07.999Z,1.40
2018-03-12T13:39:36.400Z,1.83
2018-03-12T13:42:04.060Z,1.50
2018-03-12T13:44:31.723Z,1.50
2018-03-12T13:46:59.419Z,1.70
2018-03-12T13:49:27.093Z,2.07
2018-03-12T13:51:54.743Z,1.90
2018-03-12T13:54:22.984Z,1.73
2018-03-12T13:56:50.899Z,1.63
2018-03-12T13:59:18.577Z,1.67
2018-03-12T14:01:47.096Z,1.47
2018-03-12T14:04:14.797Z,1.50
2018-03-12T14:06:42.548Z,1.57
2018-03-12T14:09:11.028Z,1.47
2018-03-12T14:11:38.722Z,1.90
2018-03-12T14:14:07.811Z,1.37
2018-03-12T14:16:36.242Z,1.43
2018-03-12T14:19:04.741Z,1.70
2018-03-12T14:21:32.443Z,1.33
2018-03-12T14:24:00.097Z,1.40
2018-03-12T14:26:28.643Z,1.10
2018-03-12T14:28:56.369Z,1.50
2018-03-12T14:31:24.028Z,1.43
2018-03-12T14:33:51.759Z,1.23
2018-03-12T14:36:20.208Z,1.83
2018-03-12T14:38:47.877Z,1.47
2018-03-12T14:41:16.354Z,2.00
2018-03-12T14:43:44.035Z,1.20
2018-03-12T14:46:12.500Z,1.60
2018-03-12T14:48:40.196Z,1.80
2018-03-12T14:51:07.897Z,2.00
2018-03-12T14:53:35.594Z,1.30
2018-03-12T14:56:04.056Z,1.40
2018-03-12T14:58:31.737Z,1.87
2018-03-12T15:00:59.484Z,1.40
2018-03-12T15:03:27.274Z,1.40
2018-03-12T15:05:55.044Z,1.20
2018-03-12T15:08:22.724Z,1.27
2018-03-12T15:10:51.152Z,1.40
2018-03-12T15:13:18.865Z,1.33
2018-03-12T15:15:46.545Z,1.67
2018-03-12T15:18:14.224Z,1.20
2018-03-12T15:20:41.953Z,1.50
2018-03-12T15:23:09.622Z,1.53
2018-03-12T15:25:37.413Z,1.57
2018-03-12T15:28:05.125Z,1.53
2018-03-12T15:30:32.809Z,1.57
2018-03-12T15:33:00.494Z,1.90
2018-03-12T15:35:28.207Z,2.10
2018-03-12T15:37:56.109Z,1.63
2018-03-12T15:40:24.217Z,1.60
2018-03-12T15:42:52.447Z,1.70
2018-03-12T15:45:22.186Z,1.77
2018-03-12T15:47:50.252Z,1.60
2018-03-12T15:50:19.481Z,1.63
2018-03-12T15:52:48.386Z,1.70
2018-03-12T15:55:18.506Z,1.50
2018-03-12T15:57:47.054Z,1.63
2018-03-12T16:00:15.582Z,1.30
2018-03-12T16:02:43.303Z,1.73
2018-03-12T16:05:11.032Z,1.50
2018-03-12T16:07:38.696Z,1.10
2018-03-12T16:10:06.406Z,1.67
2018-03-12T16:12:34.426Z,1.50
2018-03-12T16:15:03.201Z,1.47
2018-03-12T16:17:30.883Z,1.30
2018-03-12T16:19:59.371Z,1.30
2018-03-12T16:22:27.831Z,1.33
2018-03-12T16:24:55.545Z,0.90
2018-03-12T16:27:23.232Z,1.37
2018-03-12T16:29:51.877Z,1.17
2018-03-12T16:32:19.641Z,1.07
2018-03-12T16:34:47.350Z,0.80
2018-03-12T16:37:15.733Z,0.67
2018-03-12T16:39:43.490Z,0.80
2018-03-12T16:42:13.528Z,0.80
2018-03-12T16:44:42.252Z,0.70
2018-03-12T16:47:10.211Z,0.90
2018-03-12T16:49:37.943Z,0.90
2018-03-12T16:52:06.381Z,1.10
2018-03-12T16:54:41.416Z,0.67
2018-03-12T16:57:03.056Z,1.00
2018-03-12T16:59:30.757Z,0.83
2018-03-12T17:01:58.485Z,0.60
2018-03-12T17:04:26.373Z,0.93
2018-03-12T17:06:54.417Z,0.97
2018-03-12T17:09:22.781Z,1.20
2018-03-12T17:11:51.840Z,0.83
2018-03-12T17:14:23.306Z,1.13
2018-03-12T17:16:55.209Z,0.83
2018-03-12T17:19:24.379Z,0.87
2018-03-12T17:22:02.950Z,1.10
2018-03-12T17:24:31.575Z,1.00
2018-03-12T17:27:02.200Z,1.23
2018-03-12T17:29:31.095Z,0.90
2018-03-12T17:31:58.907Z,1.20
2018-03-12T17:34:26.652Z,1.30
2018-03-12T17:36:55.504Z,1.43
2018-03-12T17:39:24.193Z,1.00
2018-03-12T17:41:51.872Z,1.00
2018-03-12T17:44:20.942Z,0.70
2018-03-12T17:46:48.937Z,0.80
2018-03-12T17:49:17.383Z,1.13
2018-03-12T17:51:45.096Z,1.87
2018-03-12T17:54:13.260Z,0.83
2018-03-12T17:56:40.973Z,0.80
2018-03-12T17:59:08.700Z,1.30
2018-03-12T18:01:36.839Z,2.07
2018-03-12T18:04:05.317Z,1.47
2018-03-12T18:06:33.924Z,0.80
2018-03-12T18:09:01.749Z,1.13
2018-03-12T18:11:30.343Z,1.80
2018-03-12T18:13:59.096Z,1.50
2018-03-12T18:16:27.124Z,0.90
2018-03-12T18:18:55.177Z,0.70
2018-03-12T18:21:23.176Z,1.10
2018-03-12T18:23:51.184Z,0.93
2018-03-12T18:26:19.060Z,0.80
2018-03-12T18:28:46.988Z,1.23
2018-03-12T18:31:14.741Z,0.73
2018-03-12T18:33:43.146Z,1.00
2018-03-12T18:36:10.922Z,1.10
2018-03-12T18:38:39.574Z,1.17
2018-03-12T18:41:07.325Z,1.00
2018-03-12T18:43:35.097Z,0.80
2018-03-12T18:46:02.811Z,0.90
2018-03-12T18:48:30.519Z,0.83
2018-03-12T18:50:58.200Z,1.10
2018-03-12T18:53:25.931Z,1.10
2018-03-12T18:55:53.689Z,1.23
2018-03-12T18:58:21.427Z,1.00
2018-03-12T19:00:49.868Z,1.23
2018-03-12T19:03:17.572Z,0.70
2018-03-12T19:05:45.403Z,1.13
2018-03-12T19:08:13.202Z,1.07
2018-03-12T19:10:40.971Z,1.40
2018-03-12T19:13:08.781Z,1.13
2018-03-12T19:15:36.615Z,1.90
2018-03-12T19:18:04.355Z,1.00
2018-03-12T19:20:32.800Z,0.97
2018-03-12T19:23:01.356Z,1.30
2018-03-12T19:25:29.076Z,1.17
2018-03-12T19:27:56.961Z,1.00
2018-03-12T19:30:24.706Z,1.00
2018-03-12T19:32:52.492Z,1.00
2018-03-12T19:35:20.269Z,1.17
2018-03-12T19:37:48.116Z,1.00
2018-03-12T19:40:15.854Z,1.20
2018-03-12T19:42:43.711Z,1.00
2018-03-12T19:45:12.356Z,1.20
2018-03-12T19:47:40.152Z,0.90
2018-03-12T19:50:08.632Z,0.90
2018-03-12T19:52:37.131Z,1.20
2018-03-12T19:55:04.820Z,1.07
2018-03-12T19:57:32.560Z,1.03
2018-03-12T20:00:00.409Z,0.73
2018-03-12T20:02:28.824Z,0.80
2018-03-12T20:04:56.552Z,0.90
2018-03-12T20:07:24.464Z,0.80
2018-03-12T20:09:52.357Z,1.03
2018-03-12T20:12:20.967Z,0.90
2018-03-12T20:14:54.737Z,0.70
2018-03-12T20:17:22.697Z,1.07
2018-03-12T20:19:50.954Z,0.73
2018-03-12T20:22:18.782Z,0.90
2018-03-12T20:24:46.609Z,0.77
2018-03-12T20:27:16.261Z,0.70
2018-03-12T20:29:44.045Z,1.00
2018-03-12T20:32:11.836Z,1.00
2018-03-12T20:34:39.771Z,1.00
2018-03-12T20:37:07.646Z,1.10
2018-03-12T20:39:35.569Z,1.60
2018-03-12T20:42:03.556Z,1.10
2018-03-12T20:44:31.419Z,0.97
2018-03-12T20:46:59.298Z,0.93
2018-03-12T20:49:28.247Z,1.00
2018-03-12T20:51:56.172Z,1.23
2018-03-12T20:54:24.914Z,0.90
2018-03-12T20:56:53.278Z,1.03
2018-03-12T20:59:21.114Z,1.30
2018-03-12T21:01:49.052Z,1.10
2018-03-12T21:04:16.767Z,0.87
2018-03-12T21:06:45.172Z,0.70
2018-03-12T21:09:12.888Z,0.73
2018-03-12T21:11:40.661Z,0.73
2018-03-12T21:14:09.121Z,0.80
2018-03-12T21:16:36.856Z,0.77
2018-03-12T21:19:04.596Z,0.87
2018-03-12T21:21:32.306Z,0.83
2018-03-12T21:23:59.995Z,0.90
2018-03-12T21:26:28.449Z,1.43
2018-03-12T21:28:56.146Z,1.03
2018-03-12T21:31:23.828Z,0.87
2018-03-12T21:33:51.545Z,0.80
2018-03-12T21:36:19.982Z,1.10
2018-03-12T21:38:47.680Z,0.70
2018-03-12T21:41:16.190Z,0.77
2018-03-12T21:43:43.860Z,0.90
2018-03-12T21:46:11.600Z,0.63
2018-03-12T21:48:39.544Z,0.70
2018-03-12T21:51:07.633Z,0.90
2018-03-12T21:53:35.593Z,0.90
2018-03-12T21:56:04.610Z,0.60
2018-03-12T21:58:32.598Z,0.90
2018-03-12T22:01:00.597Z,0.90
2018-03-12T22:03:28.517Z,0.80
2018-03-12T22:05:56.386Z,0.80
2018-03-12T22:08:24.504Z,0.73
2018-03-12T22:10:52.976Z,0.70
2018-03-12T22:13:21.011Z,0.83
2018-03-12T22:15:48.876Z,0.90
2018-03-12T22:18:16.738Z,0.87
2018-03-12T22:20:44.850Z,0.87
2018-03-12T22:23:12.841Z,1.30
2018-03-12T22:25:41.369Z,1.03
2018-03-12T22:28:09.181Z,1.13
2018-03-12T22:30:37.697Z,0.90
2018-03-12T22:33:05.480Z,0.80
2018-03-12T22:35:33.277Z,1.10
2018-03-12T22:38:01.715Z,0.70
2018-03-12T22:40:29.544Z,0.97
2018-03-12T22:42:57.396Z,1.03
2018-03-12T22:45:26.327Z,0.93
2018-03-12T22:47:54.473Z,0.80
2018-03-12T22:50:22.352Z,0.70
2018-03-12T22:52:50.325Z,1.00
2018-03-12T22:55:18.367Z,1.30
2018-03-12T22:57:46.340Z,1.20
2018-03-12T23:00:15.096Z,0.80
2018-03-12T23:02:43.682Z,0.83
2018-03-12T23:05:12.201Z,0.83
2018-03-12T23:07:39.895Z,0.80
2018-03-12T23:10:07.655Z,0.93
2018-03-12T23:12:35.543Z,0.60
2018-03-12T23:15:06.085Z,0.80
2018-03-12T23:17:34.305Z,0.80
2018-03-12T23:20:01.981Z,1.13
2018-03-12T23:22:29.659Z,0.83
2018-03-12T23:24:58.143Z,0.80
2018-03-12T23:27:26.577Z,0.77
2018-03-12T23:29:54.249Z,1.10
2018-03-12T23:32:22.004Z,0.60
2018-03-12T23:34:49.653Z,0.60
2018-03-12T23:37:17.344Z,0.80
2018-03-12T23:39:45.020Z,0.63
2018-03-12T23:42:12.784Z,0.70
2018-03-12T23:44:40.444Z,0.50
2018-03-12T23:47:08.196Z,0.50
2018-03-12T23:49:35.870Z,0.53
2018-03-12T23:52:03.544Z,0.70
2018-03-12T23:54:31.310Z,0.60
2018-03-12T23:56:58.975Z,0.63
2018-03-12T23:59:27.414Z,0.80
